createdAt,value
2018-05-28T00:02:15.098Z,20.27
2018-05-28T00:04:42.564Z,20.87
2018-05-28T00:07:10.004Z,19.83
2018-05-28T00:09:37.440Z,21.40
2018-05-28T00:12:04.812Z,21.20
2018-05-28T00:14:32.234Z,21.50
2018-05-28T00:16:59.649Z,21.17
2018-05-28T00:19:27.051Z,20.67
2018-05-28T00:21:54.402Z,21.00
2018-05-28T00:24:21.945Z,21.30
2018-05-28T00:26:49.392Z,21.27
2018-05-28T00:29:16.965Z,21.00
2018-05-28T00:31:44.393Z,20.60
2018-05-28T00:34:11.795Z,21.50
2018-05-28T00:36:39.204Z,20.60
2018-05-28T00:39:06.637Z,20.67
2018-05-28T00:41:34.021Z,20.83
2018-05-28T00:44:01.503Z,22.37
2018-05-28T00:46:28.939Z,21.90
2018-05-28T00:48:56.381Z,21.40
2018-05-28T00:51:23.806Z,21.90
2018-05-28T00:53:51.235Z,21.20
2018-05-28T00:56:18.680Z,21.60
2018-05-28T00:58:46.141Z,21.73
2018-05-28T01:01:13.600Z,21.90
2018-05-28T01:03:41.049Z,22.53
2018-05-28T01:06:08.464Z,22.63
2018-05-28T01:08:35.833Z,22.10
2018-05-28T01:11:03.272Z,21.90
2018-05-28T01:13:30.671Z,22.53
2018-05-28T01:15:58.072Z,21.60
2018-05-28T01:18:25.433Z,22.87
2018-05-28T01:20:52.884Z,22.73
2018-05-28T01:23:20.291Z,23.00
2018-05-28T01:25:47.695Z,22.53
2018-05-28T01:28:15.090Z,24.23
2018-05-28T01:30:42.473Z,23.53
2018-05-28T01:33:09.887Z,22.40
2018-05-28T01:35:37.286Z,22.60
2018-05-28T01:38:04.722Z,21.87
2018-05-28T01:40:32.119Z,23.30
2018-05-28T01:42:59.519Z,22.37
2018-05-28T01:45:26.892Z,22.87
2018-05-28T01:47:54.332Z,23.13
2018-05-28T01:50:21.887Z,21.40
2018-05-28T01:52:49.290Z,23.00
2018-05-28T01:55:16.834Z,22.10
2018-05-28T01:57:44.228Z,23.50
2018-05-28T02:00:11.583Z,22.83
2018-05-28T02:02:38.980Z,23.00
2018-05-28T02:05:06.359Z,23.80
2018-05-28T02:07:33.817Z,22.03
2018-05-28T02:10:01.241Z,21.73
2018-05-28T02:12:28.611Z,22.27
2018-05-28T02:14:56.047Z,22.00
2018-05-28T02:17:23.443Z,22.77
2018-05-28T02:19:50.868Z,22.70
2018-05-28T02:22:18.454Z,22.17
2018-05-28T02:24:45.980Z,23.03
2018-05-28T02:27:13.368Z,22.67
2018-05-28T02:29:40.728Z,23.00
2018-05-28T02:32:08.249Z,23.90
2018-05-28T02:34:35.663Z,22.77
2018-05-28T02:37:03.024Z,23.23
2018-05-28T02:39:30.427Z,23.33
2018-05-28T02:41:57.908Z,23.40
2018-05-28T02:44:25.301Z,23.20
2018-05-28T02:46:52.660Z,23.80
2018-05-28T02:49:20.078Z,24.70
2018-05-28T02:51:47.460Z,23.20
2018-05-28T02:54:14.896Z,24.30
2018-05-28T02:56:42.335Z,24.47
2018-05-28T02:59:09.726Z,23.20
2018-05-28T03:01:37.117Z,24.37
2018-05-28T03:04:04.522Z,25.17
2018-05-28T03:06:31.939Z,24.57
2018-05-28T03:08:59.328Z,24.70
2018-05-28T03:11:26.779Z,24.07
2018-05-28T03:13:54.207Z,24.43
2018-05-28T03:16:21.606Z,24.63
2018-05-28T03:18:49.004Z,25.43
2018-05-28T03:21:16.442Z,25.40
2018-05-28T03:23:43.982Z,23.30
2018-05-28T03:26:11.383Z,24.53
2018-05-28T03:28:38.944Z,26.10
2018-05-28T03:31:06.330Z,24.70
2018-05-28T03:33:33.747Z,24.33
2018-05-28T03:36:01.110Z,25.17
2018-05-28T03:38:28.496Z,23.60
2018-05-28T03:40:55.879Z,22.50
2018-05-28T03:43:23.238Z,25.27
2018-05-28T03:45:50.631Z,24.90
2018-05-28T03:48:18.583Z,22.93
2018-05-28T03:50:45.973Z,25.20
2018-05-28T03:53:13.331Z,24.47
2018-05-28T03:55:40.715Z,24.20
2018-05-28T03:58:08.103Z,23.90
2018-05-28T04:00:41.458Z,24.30
2018-05-28T04:03:14.679Z,23.73
2018-05-28T04:05:48.039Z,22.70
2018-05-28T04:08:15.493Z,24.27
2018-05-28T04:10:42.944Z,23.70
2018-05-28T04:13:10.364Z,23.73
2018-05-28T04:15:37.730Z,25.70
2018-05-28T04:18:05.159Z,23.30
2018-05-28T04:20:32.603Z,24.17
2018-05-28T04:22:59.994Z,23.67
2018-05-28T04:25:27.378Z,23.87
2018-05-28T04:27:54.984Z,23.53
2018-05-28T04:30:22.389Z,23.30
2018-05-28T04:32:49.771Z,24.07
2018-05-28T04:35:17.222Z,23.67
2018-05-28T04:37:44.824Z,23.70
2018-05-28T04:40:12.180Z,23.40
2018-05-28T04:42:39.551Z,23.10
2018-05-28T04:45:06.939Z,23.20
2018-05-28T04:47:34.319Z,24.30
2018-05-28T04:50:01.727Z,23.73
2018-05-28T04:52:29.116Z,23.60
2018-05-28T04:54:56.678Z,24.00
2018-05-28T04:57:24.069Z,22.53
2018-05-28T04:59:51.500Z,23.60
2018-05-28T05:02:18.984Z,24.93
2018-05-28T05:04:46.389Z,24.77
2018-05-28T05:07:13.828Z,24.27
2018-05-28T05:09:41.225Z,24.97
2018-05-28T05:12:08.729Z,22.83
2018-05-28T05:14:36.958Z,23.60
2018-05-28T05:17:04.437Z,22.70
2018-05-28T05:19:32.021Z,23.60
2018-05-28T05:21:59.392Z,24.50
2018-05-28T05:24:26.807Z,22.90
2018-05-28T05:26:54.175Z,24.60
2018-05-28T05:29:21.590Z,23.67
2018-05-28T05:31:49.106Z,22.70
2018-05-28T05:34:16.554Z,23.50
2018-05-28T05:36:43.906Z,22.87
2018-05-28T05:39:11.447Z,24.23
2018-05-28T05:41:38.869Z,22.70
2018-05-28T05:44:06.244Z,23.00
2018-05-28T05:46:33.677Z,22.60
2018-05-28T05:49:01.094Z,23.17
2018-05-28T05:51:28.535Z,22.13
2018-05-28T05:53:55.987Z,23.07
2018-05-28T05:56:23.503Z,23.60
2018-05-28T05:58:50.901Z,24.37
2018-05-28T06:01:18.311Z,23.00
2018-05-28T06:03:45.696Z,23.10
2018-05-28T06:06:13.155Z,23.80
2018-05-28T06:08:40.525Z,22.87
2018-05-28T06:11:07.963Z,22.40
2018-05-28T06:13:35.389Z,22.70
2018-05-28T06:16:02.775Z,23.13
2018-05-28T06:18:30.176Z,21.83
2018-05-28T06:20:57.564Z,22.90
2018-05-28T06:23:24.996Z,22.87
2018-05-28T06:25:52.420Z,23.30
2018-05-28T06:28:19.822Z,22.67
2018-05-28T06:30:47.247Z,22.17
2018-05-28T06:33:14.602Z,22.40
2018-05-28T06:35:42.255Z,22.63
2018-05-28T06:38:09.647Z,21.87
2018-05-28T06:40:37.068Z,22.70
2018-05-28T06:43:04.480Z,22.23
2018-05-28T06:45:31.881Z,22.90
2018-05-28T06:47:59.488Z,23.80
2018-05-28T06:50:26.881Z,23.10
2018-05-28T06:52:54.238Z,21.80
2018-05-28T06:55:21.656Z,22.97
2018-05-28T06:57:49.044Z,23.03
2018-05-28T07:00:16.448Z,23.30
2018-05-28T07:02:44.050Z,22.80
2018-05-28T07:05:11.420Z,22.83
2018-05-28T07:07:38.906Z,22.70
2018-05-28T07:10:06.304Z,22.00
2018-05-28T07:12:33.735Z,22.07
2018-05-28T07:15:01.142Z,21.93
2018-05-28T07:17:28.528Z,22.20
2018-05-28T07:19:55.962Z,22.00
2018-05-28T07:22:23.364Z,22.10
2018-05-28T07:24:50.901Z,22.50
2018-05-28T07:27:18.360Z,22.03
2018-05-28T07:29:45.775Z,22.10
2018-05-28T07:32:13.225Z,21.73
2018-05-28T07:34:40.660Z,21.40
2018-05-28T07:37:08.072Z,22.23
2018-05-28T07:39:35.508Z,21.00
2018-05-28T07:42:02.901Z,21.10
2018-05-28T07:44:30.339Z,21.37
2018-05-28T07:46:57.761Z,19.47
2018-05-28T07:49:25.131Z,20.47
2018-05-28T07:51:52.548Z,21.07
2018-05-28T07:54:20.026Z,20.70
2018-05-28T07:56:47.496Z,20.57
2018-05-28T07:59:14.932Z,20.60
2018-05-28T08:01:42.480Z,20.70
2018-05-28T08:04:09.900Z,20.50
2018-05-28T08:06:38.191Z,21.63
2018-05-28T08:09:05.578Z,21.30
2018-05-28T08:11:32.967Z,21.23
2018-05-28T08:14:00.354Z,22.70
2018-05-28T08:16:27.725Z,21.13
2018-05-28T08:18:55.165Z,21.13
2018-05-28T08:21:22.595Z,20.80
2018-05-28T08:23:50.017Z,21.30
2018-05-28T08:26:17.619Z,21.60
2018-05-28T08:28:45.057Z,22.07
2018-05-28T08:31:12.628Z,20.57
2018-05-28T08:33:40.022Z,21.00
2018-05-28T08:36:07.444Z,21.03
2018-05-28T08:38:34.955Z,20.90
2018-05-28T08:41:02.367Z,21.57
2018-05-28T08:43:29.760Z,21.33
2018-05-28T08:45:57.138Z,20.77
2018-05-28T08:48:24.530Z,19.90
2018-05-28T08:50:51.991Z,20.80
2018-05-28T08:53:19.397Z,21.47
2018-05-28T08:55:46.779Z,21.80
2018-05-28T08:58:14.213Z,21.40
2018-05-28T09:00:41.673Z,20.43
2018-05-28T09:03:09.107Z,19.83
2018-05-28T09:05:36.519Z,20.90
2018-05-28T09:08:04.031Z,22.50
2018-05-28T09:10:31.402Z,21.20
2018-05-28T09:12:58.839Z,21.00
2018-05-28T09:15:26.235Z,20.70
2018-05-28T09:17:53.645Z,19.87
2018-05-28T09:20:21.029Z,20.17
2018-05-28T09:22:48.449Z,20.97
2018-05-28T09:25:15.847Z,22.10
2018-05-28T09:27:43.203Z,20.63
2018-05-28T09:30:10.688Z,20.67
2018-05-28T09:32:38.145Z,19.90
2018-05-28T09:35:05.536Z,18.87
2018-05-28T09:37:33.421Z,18.47
2018-05-28T09:40:00.841Z,20.27
2018-05-28T09:42:28.469Z,18.60
2018-05-28T09:44:55.830Z,17.90
2018-05-28T09:47:23.217Z,16.90
2018-05-28T09:49:50.635Z,19.10
2018-05-28T09:52:18.341Z,18.87
2018-05-28T09:54:45.734Z,19.20
2018-05-28T09:57:13.159Z,18.20
2018-05-28T09:59:40.650Z,15.60
2018-05-28T10:02:08.053Z,15.97
2018-05-28T10:04:35.479Z,16.23
2018-05-28T10:07:02.881Z,16.30
2018-05-28T10:09:30.272Z,16.00
2018-05-28T10:11:57.705Z,15.70
2018-05-28T10:14:25.359Z,15.23
2018-05-28T10:16:52.888Z,15.73
2018-05-28T10:19:20.456Z,14.60
2018-05-28T10:21:48.073Z,15.00
2018-05-28T10:24:15.507Z,14.37
2018-05-28T10:26:42.940Z,14.23
2018-05-28T10:29:10.314Z,15.23
2018-05-28T10:31:37.753Z,14.70
2018-05-28T10:34:05.185Z,15.10
2018-05-28T10:36:32.767Z,14.27
2018-05-28T10:39:00.141Z,14.80
2018-05-28T10:41:27.565Z,13.67
2018-05-28T10:43:54.966Z,14.43
2018-05-28T10:46:22.385Z,13.33
2018-05-28T10:48:49.789Z,12.00
2018-05-28T10:51:17.167Z,13.17
2018-05-28T10:53:44.559Z,12.80
2018-05-28T10:56:11.935Z,13.50
2018-05-28T10:58:39.487Z,13.87
2018-05-28T11:01:06.946Z,14.23
2018-05-28T11:03:34.321Z,13.43
2018-05-28T11:06:01.770Z,12.80
2018-05-28T11:08:29.159Z,12.30
